Time;durP1;ratioP1;P1;durP2;ratioP2;P2;SDS_P1;SDS_P2;PMS_P1;PMS_P2;Temp;Humidity;BMP_temperature;BMP_pressure;BME280_temperature;BME280_humidity;BME280_pressure;Samples;Min_cycle;Max_cycle;Signal;HPM_P1;HPM_P2
2022/07/11 00:01:51;;;;;;;0.60;0.60;;;15.30;99.90;;;;;;5055025;28;20032;-73
2022/07/11 00:04:17;;;;;;;1.77;0.70;;;15.40;99.90;;;;;;5049635;28;20080;-73
2022/07/11 00:06:42;;;;;;;1.60;0.82;;;15.30;99.90;;;;;;5048265;28;20079;-73
2022/07/11 00:09:08;;;;;;;2.15;0.85;;;14.50;99.90;;;;;;5048046;28;20052;-73
2022/07/11 00:11:34;;;;;;;1.67;0.90;;;14.70;99.90;;;;;;5050398;28;20571;-74
2022/07/11 00:14:00;;;;;;;0.63;0.50;;;15.20;99.90;;;;;;5025083;28;20041;-74
2022/07/11 00:16:25;;;;;;;0.60;0.30;;;14.50;99.90;;;;;;5051172;28;20047;-69
2022/07/11 00:18:52;;;;;;;1.48;0.65;;;15.30;99.90;;;;;;5053214;28;20498;-69
2022/07/11 00:21:19;;;;;;;2.15;0.70;;;14.50;99.90;;;;;;5051358;28;20048;-69
2022/07/11 00:23:44;;;;;;;;;;;15.10;99.90;;;;;;5052805;28;20115;-69
2022/07/11 00:26:10;;;;;;;1.02;0.82;;;14.90;99.90;;;;;;5053362;28;19999;-69
2022/07/11 00:28:35;;;;;;;0.75;0.47;;;14.40;99.90;;;;;;5036921;28;20051;-70
2022/07/11 00:31:01;;;;;;;1.23;0.60;;;14.50;99.90;;;;;;5037144;28;20647;-69
2022/07/11 00:33:27;;;;;;;1.60;0.70;;;15.00;99.90;;;;;;5052542;28;20071;-69
2022/07/11 00:35:52;;;;;;;0.93;0.70;;;15.00;99.90;;;;;;5041312;28;20047;-69
2022/07/11 00:38:18;;;;;;;1.20;0.70;;;15.20;99.90;;;;;;5071064;28;20040;-70
2022/07/11 00:40:44;;;;;;;1.23;0.70;;;14.50;99.90;;;;;;5036977;28;20093;-69
2022/07/11 00:43:09;;;;;;;1.40;0.63;;;15.20;99.90;;;;;;5054452;28;20041;-69
2022/07/11 00:45:35;;;;;;;0.75;0.43;;;15.10;99.90;;;;;;5036093;28;20407;-69
2022/07/11 00:48:01;;;;;;;0.63;0.52;;;15.00;99.90;;;;;;5037066;28;20059;-69
2022/07/11 00:50:27;;;;;;;0.70;0.52;;;14.60;99.90;;;;;;5053458;28;20127;-69
2022/07/11 00:52:54;;;;;;;1.15;0.60;;;15.20;99.90;;;;;;5053234;28;20032;-69
2022/07/11 00:55:21;;;;;;;0.40;0.40;;;15.30;99.90;;;;;;5052220;28;20044;-69
2022/07/11 00:57:48;;;;;;;0.60;0.60;;;14.40;99.90;;;;;;5052870;28;20036;-69
2022/07/11 01:00:14;;;;;;;1.00;0.60;;;15.10;99.90;;;;;;5051402;28;20064;-69
2022/07/11 01:02:40;;;;;;;1.63;0.70;;;14.60;99.90;;;;;;5032981;28;20056;-69
2022/07/11 01:05:06;;;;;;;0.73;0.70;;;14.50;99.90;;;;;;5053628;28;20052;-69
2022/07/11 01:07:32;;;;;;;0.60;0.60;;;15.20;99.90;;;;;;5053776;28;20048;-69
2022/07/11 01:09:58;;;;;;;;;;;15.20;99.90;;;;;;5036330;28;20039;-69
2022/07/11 01:12:24;;;;;;;0.50;0.50;;;14.40;99.90;;;;;;5052046;28;19939;-69
2022/07/11 01:14:52;;;;;;;0.32;0.32;;;14.70;99.90;;;;;;5053105;28;20040;-69
2022/07/11 01:17:18;;;;;;;0.40;0.38;;;15.20;99.90;;;;;;5053070;28;20040;-69
2022/07/11 01:19:43;;;;;;;1.35;0.45;;;15.10;99.90;;;;;;5052511;28;20041;-69
2022/07/11 01:22:10;;;;;;;0.30;0.30;;;14.50;99.90;;;;;;5052557;28;20040;-69
2022/07/11 01:24:35;;;;;;;0.30;0.28;;;15.10;99.90;;;;;;5052814;28;20044;-69
2022/07/11 01:27:01;;;;;;;0.50;0.50;;;14.90;99.90;;;;;;5050049;28;20044;-69
2022/07/11 01:29:27;;;;;;;0.40;0.40;;;14.50;99.90;;;;;;5051945;28;20139;-69
2022/07/11 01:31:53;;;;;;;0.80;0.60;;;14.40;99.90;;;;;;5052090;28;20123;-69
2022/07/11 01:34:18;;;;;;;1.13;0.55;;;14.80;99.90;;;;;;5035304;28;20458;-69
2022/07/11 01:36:44;;;;;;;0.60;0.40;;;15.20;99.90;;;;;;5070474;28;20044;-69
2022/07/11 01:39:10;;;;;;;0.75;0.75;;;14.60;99.90;;;;;;5052271;28;20067;-69
2022/07/11 01:41:35;;;;;;;0.68;0.63;;;15.30;99.90;;;;;;5052587;28;20153;-69
2022/07/11 01:44:01;;;;;;;1.73;0.80;;;14.40;99.90;;;;;;5053191;28;20036;-69
2022/07/11 01:46:27;;;;;;;0.63;0.50;;;14.40;99.90;;;;;;5062846;28;20191;-69
2022/07/11 01:48:52;;;;;;;1.38;0.85;;;14.40;99.90;;;;;;5033569;28;20040;-69
2022/07/11 01:51:18;;;;;;;1.70;0.70;;;14.30;99.90;;;;;;5051565;28;20043;-69
2022/07/11 01:53:44;;;;;;;1.30;0.80;;;14.30;99.90;;;;;;5051953;28;20055;-70
2022/07/11 01:56:09;;;;;;;1.00;0.80;;;15.30;99.90;;;;;;5052950;28;20045;-69
2022/07/11 01:58:35;;;;;;;0.52;0.50;;;14.80;99.90;;;;;;5053315;28;20040;-70
2022/07/11 02:01:01;;;;;;;1.27;0.70;;;14.60;99.90;;;;;;5051731;28;20375;-70
2022/07/11 02:03:26;;;;;;;1.48;0.65;;;14.30;99.90;;;;;;5056952;28;20411;-69
2022/07/11 02:05:52;;;;;;;0.60;0.60;;;14.40;99.90;;;;;;5052205;28;20052;-70
2022/07/11 02:08:18;;;;;;;0.60;0.50;;;14.60;99.90;;;;;;5034355;28;20118;-69
2022/07/11 02:10:45;;;;;;;1.38;0.60;;;14.80;99.90;;;;;;5039164;28;20053;-69
2022/07/11 02:13:16;;;;;;;0.85;0.77;;;15.40;99.90;;;;;;5052776;28;20056;-69
2022/07/11 02:15:43;;;;;;;2.08;0.77;;;14.40;99.90;;;;;;5052301;28;20068;-70
2022/07/11 02:18:10;;;;;;;1.05;0.80;;;15.40;99.90;;;;;;5052717;28;20601;-69
2022/07/11 02:20:37;;;;;;;0.57;0.57;;;14.50;99.90;;;;;;5036139;28;20044;-69
2022/07/11 02:23:03;;;;;;;1.23;0.73;;;15.40;99.90;;;;;;5052486;28;20388;-69
2022/07/11 02:25:30;;;;;;;1.45;0.90;;;14.70;99.90;;;;;;5050861;28;20056;-69
2022/07/11 02:27:56;;;;;;;0.85;0.60;;;14.40;99.90;;;;;;5052287;28;20040;-69
2022/07/11 02:30:22;;;;;;;;;;;14.40;99.90;;;;;;5031420;28;20752;-69
2022/07/11 02:32:49;;;;;;;1.38;0.88;;;14.50;99.90;;;;;;5068785;28;19920;-70
2022/07/11 02:35:15;;;;;;;1.42;1.00;;;15.10;99.90;;;;;;5051775;28;20403;-70
2022/07/11 02:37:41;;;;;;;1.00;0.80;;;14.40;99.90;;;;;;5034457;28;20102;-70
2022/07/11 02:40:07;;;;;;;0.85;0.60;;;14.70;99.90;;;;;;5034836;28;20037;-69
2022/07/11 02:42:33;;;;;;;;;;;15.10;99.90;;;;;;5052220;28;20040;-69
2022/07/11 02:44:58;;;;;;;3.13;1.10;;;15.40;99.90;;;;;;5052437;28;20778;-70
2022/07/11 02:47:24;;;;;;;1.60;0.98;;;14.40;99.90;;;;;;5052354;28;20446;-69
2022/07/11 02:49:50;;;;;;;3.15;1.25;;;14.50;99.90;;;;;;5047787;28;20119;-69
2022/07/11 02:52:15;;;;;;;1.30;0.90;;;15.30;99.90;;;;;;5051743;28;20049;-69
2022/07/11 02:54:41;;;;;;;1.25;0.95;;;14.70;99.90;;;;;;5051768;28;20077;-69
2022/07/11 02:57:07;;;;;;;0.98;0.85;;;15.40;99.90;;;;;;5051547;28;20131;-69
2022/07/11 02:59:33;;;;;;;1.55;0.80;;;14.30;99.90;;;;;;5033303;28;20055;-69
2022/07/11 03:01:59;;;;;;;2.83;0.80;;;14.30;99.90;;;;;;5049116;28;20103;-70
2022/07/11 03:04:25;;;;;;;1.90;0.55;;;15.40;99.90;;;;;;5069063;28;20080;-70
2022/07/11 03:06:51;;;;;;;1.05;0.60;;;15.10;99.90;;;;;;5049804;28;20028;-69
2022/07/11 03:09:16;;;;;;;1.58;0.70;;;14.80;99.90;;;;;;5051618;28;20173;-69
2022/07/11 03:11:42;;;;;;;0.73;0.63;;;14.70;99.90;;;;;;5051907;28;20087;-69
2022/07/11 03:14:09;;;;;;;1.33;0.60;;;15.00;99.90;;;;;;5035766;28;20451;-69
2022/07/11 03:16:34;;;;;;;2.28;0.70;;;14.50;99.90;;;;;;5049853;28;20052;-69
2022/07/11 03:19:00;;;;;;;0.90;0.60;;;14.50;99.90;;;;;;5035056;28;20041;-69
2022/07/11 03:21:26;;;;;;;1.13;0.70;;;15.40;99.90;;;;;;5037549;28;20044;-70
2022/07/11 03:23:51;;;;;;;0.60;0.50;;;15.50;99.90;;;;;;5055116;28;20083;-70
2022/07/11 03:26:17;;;;;;;0.60;0.50;;;15.50;99.90;;;;;;5053631;28;20079;-69
2022/07/11 03:28:43;;;;;;;;;;;14.40;99.90;;;;;;5055451;28;20660;-69
2022/07/11 03:31:09;;;;;;;1.20;0.60;;;15.30;99.90;;;;;;5055206;28;20003;-70
2022/07/11 03:33:35;;;;;;;1.05;0.70;;;14.60;99.90;;;;;;5053494;28;20411;-69
2022/07/11 03:36:00;;;;;;;0.50;0.40;;;15.30;99.90;;;;;;5053871;28;20376;-69
2022/07/11 03:38:27;;;;;;;0.93;0.60;;;14.50;99.90;;;;;;5054616;28;20040;-69
2022/07/11 03:40:55;;;;;;;0.50;0.40;;;14.60;99.90;;;;;;5069565;28;20041;-69
2022/07/11 03:43:22;;;;;;;0.95;0.60;;;15.50;99.90;;;;;;5055097;28;20125;-69
2022/07/11 03:45:48;;;;;;;0.50;0.50;;;15.50;99.90;;;;;;5038023;28;20048;-69
2022/07/11 03:48:14;;;;;;;1.38;0.65;;;14.90;99.90;;;;;;5054523;28;20044;-69
2022/07/11 03:50:39;;;;;;;0.60;0.60;;;14.60;99.90;;;;;;5054546;28;20087;-69
2022/07/11 03:53:05;;;;;;;0.60;0.43;;;14.50;99.90;;;;;;5054552;28;20040;-69
2022/07/11 03:55:31;;;;;;;0.50;0.50;;;14.60;99.90;;;;;;5051635;28;20090;-69
2022/07/11 03:57:57;;;;;;;;;;;14.50;99.90;;;;;;5053216;28;20438;-69
2022/07/11 04:00:23;;;;;;;1.30;0.50;;;14.70;99.90;;;;;;5051239;28;20624;-69
2022/07/11 04:02:49;;;;;;;0.70;0.40;;;14.80;99.90;;;;;;5058397;28;20117;-69
2022/07/11 04:05:15;;;;;;;0.75;0.50;;;14.90;99.90;;;;;;5061400;28;20057;-70
2022/07/11 04:07:42;;;;;;;0.30;0.30;;;15.00;99.90;;;;;;5052358;28;20408;-69
2022/07/11 04:10:08;;;;;;;0.63;0.35;;;15.30;99.90;;;;;;5050870;28;20556;-69
2022/07/11 04:12:34;;;;;;;1.25;0.40;;;15.40;99.90;;;;;;5054079;28;20504;-69
2022/07/11 04:15:00;;;;;;;0.47;0.25;;;14.60;99.90;;;;;;5038524;28;20037;-69
2022/07/11 04:17:26;;;;;;;0.20;0.20;;;15.60;99.90;;;;;;5054650;28;20047;-69
2022/07/11 04:19:53;;;;;;;0.55;0.40;;;15.50;99.90;;;;;;5037074;28;20112;-69
2022/07/11 04:22:19;;;;;;;0.63;0.30;;;14.60;99.90;;;;;;5055012;28;20131;-69
2022/07/11 04:24:44;;;;;;;0.68;0.40;;;14.50;99.90;;;;;;5053504;28;20527;-69
2022/07/11 04:27:10;;;;;;;0.80;0.50;;;15.60;99.90;;;;;;5038424;28;20032;-69
2022/07/11 04:29:36;;;;;;;0.35;0.30;;;15.30;99.90;;;;;;5052212;28;20556;-69
2022/07/11 04:32:02;;;;;;;0.88;0.57;;;14.80;99.90;;;;;;5052209;28;20033;-69
2022/07/11 04:34:27;;;;;;;1.23;0.40;;;14.80;99.90;;;;;;5054411;28;20140;-69
2022/07/11 04:36:53;;;;;;;1.00;0.45;;;14.70;99.90;;;;;;5053862;28;20051;-69
2022/07/11 04:39:18;;;;;;;2.28;0.88;;;14.60;99.90;;;;;;5032500;28;20066;-69
2022/07/11 04:41:44;;;;;;;0.40;0.30;;;15.30;99.90;;;;;;5053233;28;20048;-69
2022/07/11 04:44:10;;;;;;;0.45;0.45;;;15.50;99.90;;;;;;5037436;28;20037;-69
2022/07/11 04:46:36;;;;;;;0.95;0.50;;;14.80;99.90;;;;;;5053250;28;20074;-69
2022/07/11 04:49:02;;;;;;;1.13;0.40;;;15.40;99.90;;;;;;5051722;28;20040;-69
2022/07/11 04:51:27;;;;;;;0.50;0.30;;;14.70;99.90;;;;;;5053430;28;20040;-69
2022/07/11 04:53:53;;;;;;;0.30;0.30;;;15.40;99.90;;;;;;5053869;28;20044;-69
2022/07/11 04:56:18;;;;;;;0.52;0.20;;;14.70;99.90;;;;;;5053373;28;20045;-71
2022/07/11 04:58:44;;;;;;;0.75;0.30;;;14.80;99.90;;;;;;5052815;28;20055;-69
2022/07/11 05:01:10;;;;;;;0.43;0.30;;;14.50;99.90;;;;;;5051917;28;20611;-69
2022/07/11 05:03:36;;;;;;;0.10;0.10;;;14.60;99.90;;;;;;5051392;28;20053;-69
2022/07/11 05:06:03;;;;;;;0.20;0.20;;;14.70;99.90;;;;;;5054220;28;20391;-69
2022/07/11 05:08:29;;;;;;;1.38;0.40;;;15.00;99.90;;;;;;5060284;28;20041;-70
2022/07/11 05:10:55;;;;;;;0.63;0.40;;;14.80;99.90;;;;;;5052326;28;20052;-69
2022/07/11 05:13:21;;;;;;;0.50;0.32;;;14.80;99.90;;;;;;5046115;28;20044;-70
2022/07/11 05:15:47;;;;;;;0.77;0.30;;;14.70;99.90;;;;;;5052430;28;20120;-70
2022/07/11 05:18:12;;;;;;;0.40;0.30;;;15.50;99.90;;;;;;5051832;28;20048;-70
2022/07/11 05:20:38;;;;;;;0.80;0.40;;;15.60;99.90;;;;;;5053363;28;20085;-70
2022/07/11 05:23:04;;;;;;;0.40;0.40;;;15.00;99.90;;;;;;5056422;28;20043;-70
2022/07/11 05:25:29;;;;;;;0.77;0.40;;;14.70;99.90;;;;;;5052282;28;20054;-70
2022/07/11 05:27:55;;;;;;;0.60;0.30;;;15.60;99.90;;;;;;5052059;28;20070;-70
2022/07/11 05:30:21;;;;;;;0.90;0.20;;;15.70;99.90;;;;;;5051030;28;20036;-70
2022/07/11 05:32:46;;;;;;;0.95;0.40;;;14.80;99.90;;;;;;5052381;28;20067;-70
2022/07/11 05:35:12;;;;;;;0.82;0.30;;;15.00;99.90;;;;;;5034103;28;20032;-70
2022/07/11 05:37:38;;;;;;;0.60;0.30;;;15.50;99.90;;;;;;5050686;28;20159;-69
2022/07/11 05:40:04;;;;;;;1.27;0.32;;;15.80;99.90;;;;;;5051543;28;20076;-69
2022/07/11 05:42:31;;;;;;;0.20;0.20;;;15.10;99.90;;;;;;5043983;28;20044;-70
2022/07/11 05:44:57;;;;;;;1.23;0.20;;;14.90;99.90;;;;;;5050905;28;20028;-70
2022/07/11 05:47:23;;;;;;;0.20;0.15;;;14.70;99.90;;;;;;5058260;28;20040;-70
2022/07/11 05:49:49;;;;;;;0.75;0.40;;;15.10;99.90;;;;;;5046753;28;20055;-70
2022/07/11 05:52:15;;;;;;;0.10;0.10;;;15.10;99.90;;;;;;5052760;28;20143;-70
2022/07/11 05:54:40;;;;;;;0.55;0.20;;;14.90;99.90;;;;;;5052754;28;20041;-71
2022/07/11 05:57:06;;;;;;;0.40;0.20;;;15.60;99.90;;;;;;5051702;28;20033;-71
2022/07/11 05:59:32;;;;;;;0.80;0.63;;;15.70;99.90;;;;;;5052388;28;20047;-70
2022/07/11 06:01:57;;;;;;;0.10;0.10;;;15.90;99.90;;;;;;5032391;28;20345;-68
2022/07/11 06:04:23;;;;;;;0.57;0.20;;;15.80;99.90;;;;;;5036077;28;20095;-69
2022/07/11 06:06:49;;;;;;;0.35;0.25;;;15.20;99.90;;;;;;5052962;28;20056;-70
2022/07/11 06:09:14;;;;;;;0.95;0.25;;;15.00;99.90;;;;;;5049847;28;20450;-70
2022/07/11 06:11:40;;;;;;;0.35;0.20;;;15.80;99.90;;;;;;5069940;28;20040;-70
2022/07/11 06:14:06;;;;;;;0.20;0.17;;;16.00;99.90;;;;;;5051527;28;20037;-70
2022/07/11 06:16:32;;;;;;;0.28;0.20;;;15.20;99.90;;;;;;5051371;28;20212;-71
2022/07/11 06:18:58;;;;;;;0.17;0.10;;;15.60;99.90;;;;;;5051409;28;20071;-70
2022/07/11 06:21:25;;;;;;;0.30;0.30;;;15.40;99.90;;;;;;5051931;28;20403;-70
2022/07/11 06:23:51;;;;;;;0.25;0.15;;;16.00;99.90;;;;;;5035811;28;20055;-71
2022/07/11 06:26:17;;;;;;;0.22;0.22;;;15.90;99.90;;;;;;5051829;28;20032;-70
2022/07/11 06:28:43;;;;;;;0.70;0.30;;;15.80;99.90;;;;;;5049748;28;20045;-71
2022/07/11 06:31:09;;;;;;;0.98;0.30;;;16.60;99.90;;;;;;5051469;28;20044;-70
2022/07/11 06:33:35;;;;;;;0.50;0.20;;;16.10;99.90;;;;;;5052170;28;20059;-70
2022/07/11 06:36:01;;;;;;;;;;;16.50;99.90;;;;;;5050793;28;20087;-70
2022/07/11 06:38:28;;;;;;;0.28;0.28;;;16.30;99.90;;;;;;5051437;28;19916;-70
2022/07/11 06:40:54;;;;;;;0.10;0.10;;;15.90;99.90;;;;;;5051145;28;20051;-71
2022/07/11 06:43:20;;;;;;;0.73;0.30;;;16.30;99.90;;;;;;5067872;28;20037;-70
2022/07/11 06:45:46;;;;;;;2.15;0.57;;;16.00;99.90;;;;;;5034649;28;20439;-70
2022/07/11 06:48:12;;;;;;;1.05;0.50;;;16.70;99.90;;;;;;5033489;28;20091;-70
2022/07/11 06:50:38;;;;;;;1.92;0.55;;;15.50;99.90;;;;;;5035620;28;20048;-70
2022/07/11 06:53:04;;;;;;;1.60;0.40;;;15.90;99.90;;;;;;5051802;28;20036;-70
2022/07/11 06:55:31;;;;;;;0.30;0.28;;;16.20;99.90;;;;;;5051382;28;20102;-70
2022/07/11 06:57:56;;;;;;;1.15;0.43;;;16.30;99.90;;;;;;5055054;28;20040;-71
2022/07/11 07:00:22;;;;;;;0.40;0.17;;;16.70;99.90;;;;;;5054319;28;20043;-70
2022/07/11 07:02:48;;;;;;;0.20;0.13;;;16.60;99.90;;;;;;5053760;28;20522;-70
2022/07/11 07:05:14;;;;;;;0.32;0.30;;;15.60;99.90;;;;;;5051362;28;20090;-70
2022/07/11 07:07:41;;;;;;;1.00;0.30;;;16.40;99.90;;;;;;5037878;28;20594;-70
2022/07/11 07:10:07;;;;;;;1.00;0.45;;;15.50;99.90;;;;;;5055751;28;20075;-70
2022/07/11 07:12:32;;;;;;;;;;;16.60;99.90;;;;;;5056152;28;20135;-70
2022/07/11 07:15:00;;;;;;;0.73;0.30;;;16.20;99.90;;;;;;5055634;28;20391;-70
2022/07/11 07:17:26;;;;;;;0.82;0.38;;;16.40;99.90;;;;;;5055932;28;20068;-70
2022/07/11 07:19:51;;;;;;;1.33;0.50;;;15.80;99.90;;;;;;5039413;28;20067;-70
2022/07/11 07:22:17;;;;;;;0.90;0.55;;;16.70;99.90;;;;;;5055698;28;20846;-69
2022/07/11 07:24:43;;;;;;;0.80;0.60;;;16.80;99.90;;;;;;5048726;28;20040;-70
2022/07/11 07:27:10;;;;;;;0.70;0.50;;;16.90;99.90;;;;;;5055237;28;20033;-70
2022/07/11 07:29:35;;;;;;;;;;;16.70;99.90;;;;;;5056019;28;20146;-70
2022/07/11 07:32:02;;;;;;;0.57;0.40;;;16.00;99.90;;;;;;5055856;28;19970;-69
2022/07/11 07:34:28;;;;;;;0.30;0.30;;;16.20;99.90;;;;;;5052201;28;20130;-69
2022/07/11 07:36:53;;;;;;;0.75;0.30;;;16.10;99.90;;;;;;5052452;28;20119;-70
2022/07/11 07:39:20;;;;;;;0.55;0.30;;;16.30;99.90;;;;;;5054903;28;20036;-70
2022/07/11 07:41:45;;;;;;;;;;;17.20;99.90;;;;;;5053409;28;20542;-70
2022/07/11 07:44:11;;;;;;;0.43;0.30;;;17.30;99.90;;;;;;5054246;28;19957;-70
2022/07/11 07:46:37;;;;;;;0.40;0.40;;;16.90;99.90;;;;;;5053863;28;20056;-70
2022/07/11 07:49:03;;;;;;;0.95;0.40;;;17.60;99.90;;;;;;5053281;28;20045;-70
2022/07/11 07:51:29;;;;;;;1.35;0.30;;;16.70;99.90;;;;;;5054366;28;20152;-70
2022/07/11 07:53:55;;;;;;;1.00;0.45;;;17.10;99.90;;;;;;5054409;28;20072;-70
2022/07/11 07:56:21;;;;;;;;;;;17.30;99.90;;;;;;5038250;28;20456;-70
2022/07/11 07:58:46;;;;;;;0.47;0.20;;;17.20;99.90;;;;;;5054081;28;19916;-70
2022/07/11 08:03:56;;;;;;;0.43;0.30;;;16.70;99.90;;;;;;5064190;28;20053;-70
2022/07/11 08:06:22;;;;;;;1.13;0.30;;;17.30;99.90;;;;;;5038557;28;20052;-70
2022/07/11 08:08:49;;;;;;;;;;;16.90;99.90;;;;;;5036249;28;20471;-69
2022/07/11 08:11:15;;;;;;;0.30;0.20;;;16.60;99.90;;;;;;5042584;28;19920;-69
2022/07/11 08:13:40;;;;;;;;;;;16.90;99.90;;;;;;5054550;28;20088;-69
2022/07/11 08:16:09;;;;;;;0.13;0.10;;;17.30;99.90;;;;;;5059735;28;19927;-69
2022/07/11 08:18:35;;;;;;;0.47;0.20;;;16.90;99.90;;;;;;5053213;28;20440;-69
2022/07/11 08:21:01;;;;;;;0.40;0.13;;;16.70;99.90;;;;;;5050062;28;20041;-69
2022/07/11 08:23:28;;;;;;;0.10;0.10;;;17.50;99.90;;;;;;5037301;28;20094;-70
2022/07/11 08:25:54;;;;;;;0.20;0.10;;;16.90;99.90;;;;;;5060786;28;20488;-69
2022/07/11 08:28:20;;;;;;;;;;;17.90;99.90;;;;;;5053606;28;20105;-70
2022/07/11 08:30:46;;;;;;;0.82;0.10;;;17.20;99.90;;;;;;5053023;28;19939;-69
2022/07/11 08:33:12;;;;;;;;;;;17.20;99.90;;;;;;5053308;28;20045;-70
2022/07/11 08:35:38;;;;;;;0.38;0.20;;;17.60;99.90;;;;;;5046601;28;20375;-70
2022/07/11 08:38:03;;;;;;;;;;;17.30;99.90;;;;;;5064239;28;20047;-70
2022/07/11 08:40:29;;;;;;;0.45;0.20;;;16.90;99.90;;;;;;5048645;28;19927;-70
2022/07/11 08:42:56;;;;;;;;;;;17.40;99.90;;;;;;5060091;28;20040;-70
2022/07/11 08:45:26;;;;;;;0.32;0.10;;;17.20;99.90;;;;;;5053534;28;19916;-70
2022/07/11 08:47:54;;;;;;;0.50;0.20;;;17.40;99.90;;;;;;5069380;28;20557;-70
2022/07/11 08:50:22;;;;;;;0.17;0.10;;;16.70;99.90;;;;;;5051102;28;20399;-70
2022/07/11 08:52:48;;;;;;;0.10;0.10;;;16.80;99.90;;;;;;5057015;28;20051;-70
2022/07/11 08:55:13;;;;;;;;;;;16.80;99.90;;;;;;5052526;28;20474;-70
2022/07/11 08:57:39;;;;;;;0.10;0.00;;;17.10;99.90;;;;;;5037144;28;19921;-69
2022/07/11 09:00:07;;;;;;;;;;;18.30;99.90;;;;;;5051615;28;20097;-70
2022/07/11 09:02:33;;;;;;;0.15;0.10;;;18.40;99.90;;;;;;5054175;28;19975;-70
2022/07/11 09:05:02;;;;;;;0.00;0.00;;;18.60;99.90;;;;;;5068443;28;20190;-70
2022/07/11 09:07:28;;;;;;;0.10;0.10;;;18.90;99.90;;;;;;5071475;28;20048;-70
2022/07/11 09:09:54;;;;;;;0.10;0.00;;;18.40;99.90;;;;;;5030040;28;20048;-70
2022/07/11 09:12:20;;;;;;;;;;;18.60;99.90;;;;;;5049148;28;20044;-70
2022/07/11 09:14:48;;;;;;;0.03;0.03;;;18.10;99.90;;;;;;5049349;28;20007;-71
2022/07/11 09:17:14;;;;;;;0.30;0.10;;;18.40;99.90;;;;;;5053120;28;20063;-70
2022/07/11 09:19:40;;;;;;;0.13;0.00;;;18.00;99.90;;;;;;5050847;28;20040;-71
2022/07/11 09:25:21;;;;;;;0.10;0.10;;;17.80;99.90;;;;;;5054571;28;20055;-71
2022/07/11 09:27:51;;;;;;;0.43;0.13;;;17.50;99.90;;;;;;5051310;28;20054;-70
2022/07/11 09:30:17;;;;;;;0.00;0.00;;;17.90;99.90;;;;;;5050888;28;20147;-71
2022/07/11 09:32:54;;;;;;;0.25;0.10;;;17.60;99.90;;;;;;5050692;28;20111;-71
2022/07/11 09:35:20;;;;;;;0.30;0.10;;;17.40;99.90;;;;;;5032719;28;20047;-70
2022/07/11 09:37:48;;;;;;;0.00;0.00;;;17.30;99.90;;;;;;5048862;28;20049;-71
2022/07/11 09:40:14;;;;;;;0.10;0.08;;;17.20;99.90;;;;;;5028239;28;20035;-71
2022/07/11 09:42:51;;;;;;;0.30;0.10;;;17.20;99.90;;;;;;5048956;28;20051;-71
2022/07/11 09:45:21;;;;;;;0.10;0.00;;;17.60;99.90;;;;;;5050319;28;20674;-71
2022/07/11 09:47:49;;;;;;;0.10;0.00;;;17.20;99.90;;;;;;5030095;28;20044;-71
2022/07/11 09:50:22;;;;;;;0.60;0.10;;;17.80;99.90;;;;;;5050198;28;20040;-72
2022/07/11 09:53:12;;;;;;;0.57;0.10;;;17.40;99.90;;;;;;5051168;28;20040;-70
2022/07/11 09:55:40;;;;;;;0.10;0.00;;;17.40;99.90;;;;;;5052483;28;20048;-70
2022/07/11 09:58:11;;;;;;;0.20;0.10;;;17.40;99.90;;;;;;5032534;28;20097;-70
2022/07/11 10:00:39;;;;;;;0.10;0.10;;;17.40;99.90;;;;;;5048031;28;20119;-70
2022/07/11 10:03:06;;;;;;;0.10;0.10;;;17.40;99.90;;;;;;5049695;28;20117;-70
2022/07/11 10:05:32;;;;;;;0.40;0.10;;;16.90;99.90;;;;;;5032694;28;20060;-70
2022/07/11 10:07:59;;;;;;;0.68;0.35;;;17.30;99.90;;;;;;5032490;28;20488;-70
2022/07/11 10:10:26;;;;;;;0.10;0.10;;;17.40;99.90;;;;;;5051091;28;20084;-69
2022/07/11 10:12:53;;;;;;;0.22;0.10;;;17.00;99.90;;;;;;5042981;28;20056;-69
2022/07/11 10:15:32;;;;;;;0.13;0.10;;;17.50;99.90;;;;;;5050843;28;20135;-69
2022/07/11 10:18:13;;;;;;;0.75;0.13;;;17.30;99.90;;;;;;5049208;28;20367;-69
2022/07/11 10:20:47;;;;;;;0.15;0.13;;;17.90;99.90;;;;;;5046294;28;20138;-70
2022/07/11 10:23:28;;;;;;;0.20;0.00;;;17.50;99.90;;;;;;5052267;28;20032;-70
2022/07/11 10:26:18;;;;;;;0.10;0.10;;;17.50;99.90;;;;;;5047864;28;20036;-70
2022/07/11 10:28:55;;;;;;;0.10;0.10;;;18.00;99.90;;;;;;5044988;28;20048;-70
2022/07/11 10:31:23;;;;;;;0.10;0.00;;;17.90;99.90;;;;;;5049650;28;20102;-70
2022/07/11 10:34:08;;;;;;;0.28;0.17;;;17.50;99.90;;;;;;5049056;28;20048;-71
2022/07/11 10:36:41;;;;;;;0.10;0.00;;;17.70;99.90;;;;;;5047873;28;20072;-70
2022/07/11 10:39:27;;;;;;;0.43;0.10;;;18.10;99.90;;;;;;5045041;28;20182;-70
2022/07/11 10:41:53;;;;;;;2.55;0.40;;;18.20;99.90;;;;;;5057532;28;20052;-70
2022/07/11 10:44:19;;;;;;;0.20;0.20;;;17.50;99.90;;;;;;5050326;28;20045;-70
2022/07/11 10:46:45;;;;;;;0.22;0.13;;;17.70;99.90;;;;;;5051140;28;20091;-70
2022/07/11 10:49:14;;;;;;;;;;;17.20;99.90;;;;;;5038734;28;20163;-70
2022/07/11 10:51:47;;;;;;;0.55;0.20;;;17.80;99.90;;;;;;5050286;28;19920;-70
2022/07/11 10:54:55;;;;;;;0.10;0.10;;;17.40;99.90;;;;;;5038469;28;20072;-70
2022/07/11 10:57:36;;;;;;;;;;;17.60;99.90;;;;;;5042555;28;20102;-70
2022/07/11 11:00:05;;;;;;;0.47;0.10;;;17.80;99.90;;;;;;5037882;28;19974;-70
2022/07/11 11:02:52;;;;;;;0.50;0.20;;;18.00;99.90;;;;;;5048796;28;20053;-70
2022/07/11 11:05:44;;;;;;;0.20;0.20;;;17.40;99.90;;;;;;5029030;28;20045;-70
2022/07/11 11:08:32;;;;;;;0.52;0.10;;;17.90;99.90;;;;;;5034476;28;20057;-70
2022/07/11 11:10:59;;;;;;;0.45;0.20;;;17.80;99.90;;;;;;5048902;28;20051;-70
2022/07/11 11:13:26;;;;;;;0.10;0.10;;;17.50;99.90;;;;;;5032309;28;20115;-70
2022/07/11 11:15:53;;;;;;;0.10;0.00;;;17.90;99.90;;;;;;5041232;28;20127;-70
2022/07/11 11:18:25;;;;;;;0.00;0.00;;;17.80;99.90;;;;;;5027084;28;20045;-70
2022/07/11 11:21:02;;;;;;;0.10;0.00;;;17.80;99.90;;;;;;5041461;28;20136;-70
2022/07/11 11:23:40;;;;;;;0.20;0.00;;;17.80;99.90;;;;;;5033162;28;20041;-70
2022/07/11 11:26:15;;;;;;;0.00;0.00;;;18.20;99.90;;;;;;5048771;28;20564;-70
2022/07/11 11:29:05;;;;;;;0.65;0.10;;;18.30;99.90;;;;;;5034865;28;20060;-70
2022/07/11 11:31:32;;;;;;;0.45;0.05;;;18.00;99.90;;;;;;5048341;28;20044;-70
2022/07/11 11:34:00;;;;;;;0.00;0.00;;;18.00;99.90;;;;;;5048589;28;20060;-70
2022/07/11 11:36:27;;;;;;;1.13;0.10;;;18.10;99.90;;;;;;5047991;28;20065;-70
2022/07/11 11:38:54;;;;;;;0.35;0.00;;;18.50;99.90;;;;;;5018089;28;20052;-70
2022/07/11 11:41:30;;;;;;;0.08;0.03;;;18.50;99.90;;;;;;5048211;28;20049;-70
2022/07/11 11:44:00;;;;;;;0.10;0.00;;;18.60;99.90;;;;;;5050988;28;20037;-70
2022/07/11 11:46:27;;;;;;;0.55;0.03;;;18.20;99.90;;;;;;5051863;28;20048;-71
2022/07/11 11:48:58;;;;;;;0.75;0.10;;;18.50;99.90;;;;;;5051699;28;20045;-70
2022/07/11 11:51:26;;;;;;;1.00;0.10;;;18.30;99.90;;;;;;5034535;28;20573;-70
2022/07/11 11:53:54;;;;;;;0.98;0.20;;;18.30;99.90;;;;;;5051615;28;20037;-70
2022/07/11 11:56:30;;;;;;;0.13;0.13;;;17.90;99.90;;;;;;5051509;28;20037;-70
2022/07/11 11:59:07;;;;;;;0.20;0.10;;;18.20;99.90;;;;;;5068490;28;20032;-70
2022/07/11 12:01:35;;;;;;;0.17;0.10;;;18.20;99.90;;;;;;5042273;28;20388;-70
2022/07/11 12:04:06;;;;;;;0.45;0.30;;;17.70;99.90;;;;;;5034600;28;20522;-70
2022/07/11 12:06:34;;;;;;;0.30;0.20;;;17.70;99.90;;;;;;5050977;28;20052;-70
2022/07/11 12:09:02;;;;;;;0.40;0.20;;;17.70;99.90;;;;;;5051200;28;20500;-70
2022/07/11 12:11:29;;;;;;;0.60;0.30;;;18.00;99.90;;;;;;5051502;28;20148;-70
2022/07/11 12:14:03;;;;;;;0.47;0.20;;;17.80;99.90;;;;;;5051259;28;20152;-70
2022/07/11 12:16:41;;;;;;;1.75;0.25;;;18.10;99.90;;;;;;5051481;28;20072;-70
2022/07/11 12:19:12;;;;;;;0.38;0.20;;;18.10;99.90;;;;;;5051216;28;20051;-70
2022/07/11 12:21:47;;;;;;;1.02;0.25;;;18.00;99.90;;;;;;5050289;28;20036;-70
2022/07/11 12:24:17;;;;;;;0.10;0.10;;;18.10;99.90;;;;;;5050993;28;20032;-70
2022/07/11 12:26:44;;;;;;;0.35;0.10;;;18.10;99.90;;;;;;5050456;28;20059;-70
2022/07/11 12:29:19;;;;;;;0.45;0.13;;;18.20;99.90;;;;;;5050520;28;20129;-70
2022/07/11 12:31:53;;;;;;;0.90;0.20;;;17.90;99.90;;;;;;5049930;28;20045;-71
2022/07/11 12:34:24;;;;;;;0.32;0.15;;;18.30;99.90;;;;;;5044609;28;20045;-70
2022/07/11 12:37:01;;;;;;;0.43;0.15;;;18.40;99.90;;;;;;5057637;28;20049;-70
2022/07/11 12:39:29;;;;;;;0.40;0.10;;;18.10;99.90;;;;;;5046028;28;20041;-70
2022/07/11 12:41:56;;;;;;;0.10;0.10;;;18.20;99.90;;;;;;5067080;28;20705;-70
2022/07/11 12:47:11;;;;;;;0.52;0.10;;;18.20;99.90;;;;;;5038181;28;20076;-71
2022/07/11 12:49:44;;;;;;;0.10;0.10;;;18.40;99.90;;;;;;5049649;28;20090;-71
2022/07/11 12:52:13;;;;;;;0.57;0.20;;;18.20;99.90;;;;;;5047326;28;20727;-71
2022/07/11 12:54:39;;;;;;;0.10;0.10;;;18.40;99.90;;;;;;5047446;28;20044;-71
2022/07/11 12:57:06;;;;;;;1.40;0.20;;;18.40;99.90;;;;;;5049403;28;20409;-71
2022/07/11 12:59:33;;;;;;;0.30;0.10;;;18.00;99.90;;;;;;5033259;28;20513;-71
2022/07/11 13:02:08;;;;;;;0.80;0.20;;;18.10;99.90;;;;;;5050412;28;20061;-70
2022/07/11 13:04:48;;;;;;;0.57;0.38;;;18.50;99.90;;;;;;5047576;28;20044;-71